createdAt,value
2023-05-19T00:14:05.409Z,960.99
2023-05-19T00:29:07.143Z,961.07
2023-05-19T00:44:08.860Z,961.29
2023-05-19T00:59:10.584Z,961.4
2023-05-19T01:14:12.311Z,961.37
2023-05-19T01:29:14.011Z,961.33
2023-05-19T01:44:15.741Z,961.42
2023-05-19T01:47:38.622Z,961.43
2023-05-19T02:02:40.357Z,961.49
2023-05-19T02:17:42.008Z,961.68
2023-05-19T02:32:43.660Z,961.86
2023-05-19T02:47:45.339Z,962.12
2023-05-19T03:02:47.077Z,962.23
2023-05-19T03:17:49.394Z,962.61
2023-05-19T03:32:51.099Z,962.81
2023-05-19T03:47:52.859Z,962.94
2023-05-19T04:02:54.708Z,963.41
2023-05-19T04:17:56.529Z,963.55
2023-05-19T04:32:58.300Z,963.7
2023-05-19T04:48:00.016Z,964
2023-05-19T05:03:01.728Z,964.4
2023-05-19T05:18:03.433Z,964.66
2023-05-19T05:33:05.285Z,964.67
2023-05-19T05:48:07.142Z,964.83
2023-05-19T06:03:08.972Z,964.94
2023-05-19T06:18:10.766Z,965.15
2023-05-19T06:33:12.469Z,965.37
2023-05-19T06:48:14.105Z,965.51
2023-05-19T07:03:15.912Z,965.72
2023-05-19T07:18:17.643Z,965.93
2023-05-19T07:33:19.278Z,966.06
2023-05-19T07:48:20.924Z,966.14
2023-05-19T08:03:22.688Z,966.16
2023-05-19T15:09:25.058Z,967.91
2023-05-19T15:24:26.699Z,967.89
2023-05-19T15:39:28.294Z,967.8
2023-05-19T15:54:29.933Z,967.77
2023-05-19T16:09:31.660Z,967.7
2023-05-19T16:24:33.298Z,967.55
2023-05-19T16:39:34.933Z,967.35
2023-05-19T16:54:36.551Z,967.22
2023-05-19T17:09:38.171Z,967.1
2023-05-19T17:24:39.781Z,967.03
2023-05-19T17:39:41.453Z,966.9
2023-05-19T17:54:43.067Z,966.74
2023-05-19T18:09:44.713Z,966.53
2023-05-19T18:24:46.387Z,966.43
2023-05-19T18:39:48.023Z,966.16
2023-05-19T18:54:49.636Z,966.01
2023-05-19T19:09:51.266Z,965.82
2023-05-19T19:24:52.884Z,965.61
2023-05-19T19:39:54.495Z,965.43
2023-05-19T19:54:56.162Z,965.29
2023-05-19T20:09:57.777Z,965.1
2023-05-19T20:24:59.425Z,964.94
2023-05-19T20:40:01.076Z,964.72
2023-05-19T20:55:02.708Z,964.55
2023-05-19T21:10:04.362Z,964.42
2023-05-19T21:25:05.995Z,964.15
2023-05-19T21:40:07.629Z,964.01
2023-05-19T21:55:09.314Z,963.95
2023-05-19T22:10:10.998Z,963.77
2023-05-19T22:25:12.702Z,963.61
2023-05-19T22:40:14.473Z,963.49
2023-05-19T22:55:16.149Z,963.42
2023-05-19T23:10:17.791Z,963.28
2023-05-19T23:25:19.430Z,963.14
2023-05-19T23:40:21.076Z,963.08
2023-05-19T23:55:22.713Z,963.05
